sensor_id;sensor_type;location;lat;lon;timestamp;P1;durP1;ratioP1;P2;durP2;ratioP2
30874;SDS011;17581;43.222;27.924;2022-11-27T00:01:39;30.30;;;18.05;;
30874;SDS011;17581;43.222;27.924;2022-11-27T00:04:06;32.13;;;19.38;;
30874;SDS011;17581;43.222;27.924;2022-11-27T00:06:33;34.15;;;19.75;;
30874;SDS011;17581;43.222;27.924;2022-11-27T00:08:59;30.35;;;18.95;;
30874;SDS011;17581;43.222;27.924;2022-11-27T00:11:27;34.00;;;18.48;;
30874;SDS011;17581;43.222;27.924;2022-11-27T00:13:54;31.75;;;17.83;;
30874;SDS011;17581;43.222;27.924;2022-11-27T00:16:20;31.63;;;19.33;;
30874;SDS011;17581;43.222;27.924;2022-11-27T00:18:46;33.35;;;19.67;;
30874;SDS011;17581;43.222;27.924;2022-11-27T00:21:13;39.92;;;19.88;;
30874;SDS011;17581;43.222;27.924;2022-11-27T00:23:46;34.63;;;20.13;;
30874;SDS011;17581;43.222;27.924;2022-11-27T00:26:12;32.00;;;19.50;;
30874;SDS011;17581;43.222;27.924;2022-11-27T00:28:39;32.60;;;19.60;;
30874;SDS011;17581;43.222;27.924;2022-11-27T00:31:05;37.10;;;19.80;;
30874;SDS011;17581;43.222;27.924;2022-11-27T00:33:33;35.83;;;22.42;;
30874;SDS011;17581;43.222;27.924;2022-11-27T00:36:05;32.83;;;19.00;;
30874;SDS011;17581;43.222;27.924;2022-11-27T00:38:32;31.13;;;19.90;;
30874;SDS011;17581;43.222;27.924;2022-11-27T00:41:08;29.30;;;17.60;;
30874;SDS011;17581;43.222;27.924;2022-11-27T00:43:35;38.08;;;20.35;;
30874;SDS011;17581;43.222;27.924;2022-11-27T00:46:02;35.05;;;20.10;;
30874;SDS011;17581;43.222;27.924;2022-11-27T00:48:28;33.65;;;19.15;;
30874;SDS011;17581;43.222;27.924;2022-11-27T00:51:04;34.47;;;19.88;;
30874;SDS011;17581;43.222;27.924;2022-11-27T00:53:31;37.20;;;20.92;;
30874;SDS011;17581;43.222;27.924;2022-11-27T00:55:57;33.08;;;19.35;;
30874;SDS011;17581;43.222;27.924;2022-11-27T00:58:23;36.38;;;20.95;;
30874;SDS011;17581;43.222;27.924;2022-11-27T01:01:01;49.10;;;25.08;;
30874;SDS011;17581;43.222;27.924;2022-11-27T01:03:30;48.90;;;25.20;;
30874;SDS011;17581;43.222;27.924;2022-11-27T01:06:01;54.10;;;25.15;;
30874;SDS011;17581;43.222;27.924;2022-11-27T01:08:31;54.70;;;27.58;;
30874;SDS011;17581;43.222;27.924;2022-11-27T01:10:57;41.03;;;22.90;;
30874;SDS011;17581;43.222;27.924;2022-11-27T01:13:26;39.25;;;21.98;;
30874;SDS011;17581;43.222;27.924;2022-11-27T01:16:10;37.55;;;21.38;;
30874;SDS011;17581;43.222;27.924;2022-11-27T01:18:38;38.47;;;21.13;;
30874;SDS011;17581;43.222;27.924;2022-11-27T01:21:05;35.50;;;21.40;;
30874;SDS011;17581;43.222;27.924;2022-11-27T01:23:31;35.00;;;21.27;;
30874;SDS011;17581;43.222;27.924;2022-11-27T01:25:59;33.13;;;20.17;;
30874;SDS011;17581;43.222;27.924;2022-11-27T01:28:25;37.03;;;21.15;;
30874;SDS011;17581;43.222;27.924;2022-11-27T01:30:51;37.67;;;21.40;;
30874;SDS011;17581;43.222;27.924;2022-11-27T01:33:17;37.75;;;20.85;;
30874;SDS011;17581;43.222;27.924;2022-11-27T01:35:51;37.97;;;21.17;;
30874;SDS011;17581;43.222;27.924;2022-11-27T01:38:24;39.05;;;23.30;;
30874;SDS011;17581;43.222;27.924;2022-11-27T01:43:47;63.17;;;24.40;;
30874;SDS011;17581;43.222;27.924;2022-11-27T01:48:49;35.63;;;21.13;;
30874;SDS011;17581;43.222;27.924;2022-11-27T01:51:17;31.50;;;19.63;;
30874;SDS011;17581;43.222;27.924;2022-11-27T01:53:43;37.42;;;21.63;;
30874;SDS011;17581;43.222;27.924;2022-11-27T01:56:09;38.63;;;20.15;;
30874;SDS011;17581;43.222;27.924;2022-11-27T01:58:35;37.35;;;20.92;;
30874;SDS011;17581;43.222;27.924;2022-11-27T02:01:02;33.55;;;20.88;;
30874;SDS011;17581;43.222;27.924;2022-11-27T02:03:29;37.33;;;20.20;;
30874;SDS011;17581;43.222;27.924;2022-11-27T02:05:54;36.28;;;20.92;;
30874;SDS011;17581;43.222;27.924;2022-11-27T02:08:20;32.60;;;20.13;;
30874;SDS011;17581;43.222;27.924;2022-11-27T02:10:53;37.08;;;20.42;;
30874;SDS011;17581;43.222;27.924;2022-11-27T02:13:50;36.63;;;20.90;;
30874;SDS011;17581;43.222;27.924;2022-11-27T02:16:35;36.97;;;21.38;;
30874;SDS011;17581;43.222;27.924;2022-11-27T02:27:40;34.90;;;20.45;;
30874;SDS011;17581;43.222;27.924;2022-11-27T02:30:16;41.08;;;20.63;;
30874;SDS011;17581;43.222;27.924;2022-11-27T02:38:31;30.23;;;19.45;;
30874;SDS011;17581;43.222;27.924;2022-11-27T02:41:07;28.63;;;18.17;;
30874;SDS011;17581;43.222;27.924;2022-11-27T02:43:37;36.08;;;18.92;;
30874;SDS011;17581;43.222;27.924;2022-11-27T02:46:07;32.50;;;17.30;;
30874;SDS011;17581;43.222;27.924;2022-11-27T02:48:37;26.85;;;16.38;;
30874;SDS011;17581;43.222;27.924;2022-11-27T02:51:08;30.08;;;16.85;;
30874;SDS011;17581;43.222;27.924;2022-11-27T02:53:38;29.02;;;16.90;;
30874;SDS011;17581;43.222;27.924;2022-11-27T02:56:11;29.20;;;15.23;;
30874;SDS011;17581;43.222;27.924;2022-11-27T02:58:40;26.88;;;15.75;;
30874;SDS011;17581;43.222;27.924;2022-11-27T03:01:06;23.73;;;15.13;;
30874;SDS011;17581;43.222;27.924;2022-11-27T03:03:38;28.80;;;15.07;;
30874;SDS011;17581;43.222;27.924;2022-11-27T03:06:08;28.58;;;17.25;;
30874;SDS011;17581;43.222;27.924;2022-11-27T03:11:14;34.13;;;16.65;;
30874;SDS011;17581;43.222;27.924;2022-11-27T03:13:47;31.08;;;16.80;;
30874;SDS011;17581;43.222;27.924;2022-11-27T03:16:36;31.35;;;17.05;;
30874;SDS011;17581;43.222;27.924;2022-11-27T03:19:15;36.05;;;18.15;;
30874;SDS011;17581;43.222;27.924;2022-11-27T03:21:43;36.95;;;18.88;;
30874;SDS011;17581;43.222;27.924;2022-11-27T03:24:12;31.20;;;18.80;;
30874;SDS011;17581;43.222;27.924;2022-11-27T03:26:38;34.17;;;17.58;;
30874;SDS011;17581;43.222;27.924;2022-11-27T03:29:06;34.92;;;18.85;;
30874;SDS011;17581;43.222;27.924;2022-11-27T03:31:35;32.10;;;18.65;;
30874;SDS011;17581;43.222;27.924;2022-11-27T03:34:02;38.05;;;19.98;;
30874;SDS011;17581;43.222;27.924;2022-11-27T03:36:28;35.63;;;20.10;;
30874;SDS011;17581;43.222;27.924;2022-11-27T03:38:53;39.60;;;21.23;;
30874;SDS011;17581;43.222;27.924;2022-11-27T03:50:08;31.40;;;18.50;;
30874;SDS011;17581;43.222;27.924;2022-11-27T03:57:56;31.15;;;18.90;;
30874;SDS011;17581;43.222;27.924;2022-11-27T04:00:29;30.63;;;17.65;;
30874;SDS011;17581;43.222;27.924;2022-11-27T04:02:57;33.00;;;19.38;;
30874;SDS011;17581;43.222;27.924;2022-11-27T04:05:22;32.88;;;19.58;;
30874;SDS011;17581;43.222;27.924;2022-11-27T04:07:48;34.63;;;20.50;;
30874;SDS011;17581;43.222;27.924;2022-11-27T04:10:14;37.28;;;21.77;;
30874;SDS011;17581;43.222;27.924;2022-11-27T04:12:39;29.73;;;19.63;;
30874;SDS011;17581;43.222;27.924;2022-11-27T04:15:05;35.42;;;20.10;;
30874;SDS011;17581;43.222;27.924;2022-11-27T04:17:31;40.28;;;20.30;;
30874;SDS011;17581;43.222;27.924;2022-11-27T04:19:57;36.03;;;21.52;;
30874;SDS011;17581;43.222;27.924;2022-11-27T04:22:22;33.40;;;19.83;;
30874;SDS011;17581;43.222;27.924;2022-11-27T04:24:48;41.20;;;21.15;;
30874;SDS011;17581;43.222;27.924;2022-11-27T04:27:14;40.17;;;22.67;;
30874;SDS011;17581;43.222;27.924;2022-11-27T04:29:39;33.85;;;19.50;;
30874;SDS011;17581;43.222;27.924;2022-11-27T04:32:04;38.47;;;21.17;;
30874;SDS011;17581;43.222;27.924;2022-11-27T04:34:30;42.17;;;21.13;;
30874;SDS011;17581;43.222;27.924;2022-11-27T04:36:56;38.88;;;21.80;;
30874;SDS011;17581;43.222;27.924;2022-11-27T04:39:22;37.90;;;21.42;;
30874;SDS011;17581;43.222;27.924;2022-11-27T04:41:47;35.25;;;20.73;;
30874;SDS011;17581;43.222;27.924;2022-11-27T04:44:13;37.70;;;21.73;;
30874;SDS011;17581;43.222;27.924;2022-11-27T04:46:38;36.72;;;22.65;;
30874;SDS011;17581;43.222;27.924;2022-11-27T04:49:04;36.75;;;20.42;;
30874;SDS011;17581;43.222;27.924;2022-11-27T04:51:30;34.40;;;18.65;;
30874;SDS011;17581;43.222;27.924;2022-11-27T04:53:55;39.42;;;20.67;;
30874;SDS011;17581;43.222;27.924;2022-11-27T04:56:20;32.60;;;18.70;;
30874;SDS011;17581;43.222;27.924;2022-11-27T04:58:46;36.40;;;20.58;;
30874;SDS011;17581;43.222;27.924;2022-11-27T05:01:11;35.85;;;19.90;;
30874;SDS011;17581;43.222;27.924;2022-11-27T05:03:37;34.22;;;19.45;;
30874;SDS011;17581;43.222;27.924;2022-11-27T05:06:03;38.33;;;20.70;;
30874;SDS011;17581;43.222;27.924;2022-11-27T05:08:29;36.15;;;20.17;;
30874;SDS011;17581;43.222;27.924;2022-11-27T05:11:02;31.98;;;17.40;;
30874;SDS011;17581;43.222;27.924;2022-11-27T05:13:29;39.40;;;20.08;;
30874;SDS011;17581;43.222;27.924;2022-11-27T05:15:55;41.75;;;21.92;;
30874;SDS011;17581;43.222;27.924;2022-11-27T05:18:21;43.10;;;23.40;;
30874;SDS011;17581;43.222;27.924;2022-11-27T05:20:47;32.80;;;18.92;;
30874;SDS011;17581;43.222;27.924;2022-11-27T05:23:12;30.95;;;17.70;;
30874;SDS011;17581;43.222;27.924;2022-11-27T05:25:37;34.35;;;18.30;;
30874;SDS011;17581;43.222;27.924;2022-11-27T05:28:03;33.90;;;17.95;;
30874;SDS011;17581;43.222;27.924;2022-11-27T05:30:29;34.97;;;17.77;;
30874;SDS011;17581;43.222;27.924;2022-11-27T05:32:54;36.70;;;19.98;;
30874;SDS011;17581;43.222;27.924;2022-11-27T05:35:20;32.17;;;17.85;;
30874;SDS011;17581;43.222;27.924;2022-11-27T05:37:45;34.17;;;19.98;;
30874;SDS011;17581;43.222;27.924;2022-11-27T05:40:11;36.85;;;18.27;;
30874;SDS011;17581;43.222;27.924;2022-11-27T05:42:36;38.78;;;17.70;;
30874;SDS011;17581;43.222;27.924;2022-11-27T05:45:02;32.17;;;17.63;;
30874;SDS011;17581;43.222;27.924;2022-11-27T05:47:27;34.22;;;17.85;;
30874;SDS011;17581;43.222;27.924;2022-11-27T05:49:53;33.95;;;18.15;;
30874;SDS011;17581;43.222;27.924;2022-11-27T05:52:18;41.33;;;17.02;;
30874;SDS011;17581;43.222;27.924;2022-11-27T05:54:44;32.70;;;18.58;;
30874;SDS011;17581;43.222;27.924;2022-11-27T05:57:09;35.90;;;16.75;;
30874;SDS011;17581;43.222;27.924;2022-11-27T05:59:35;34.25;;;17.00;;
30874;SDS011;17581;43.222;27.924;2022-11-27T06:02:00;30.38;;;17.02;;
30874;SDS011;17581;43.222;27.924;2022-11-27T06:04:25;31.45;;;18.13;;
30874;SDS011;17581;43.222;27.924;2022-11-27T06:06:51;32.85;;;17.00;;
30874;SDS011;17581;43.222;27.924;2022-11-27T06:09:16;30.83;;;18.50;;
30874;SDS011;17581;43.222;27.924;2022-11-27T06:11:42;28.83;;;15.73;;
30874;SDS011;17581;43.222;27.924;2022-11-27T06:14:07;34.65;;;18.63;;
30874;SDS011;17581;43.222;27.924;2022-11-27T06:16:33;33.15;;;17.08;;
30874;SDS011;17581;43.222;27.924;2022-11-27T06:18:59;36.63;;;17.83;;
30874;SDS011;17581;43.222;27.924;2022-11-27T06:21:24;33.90;;;17.80;;
30874;SDS011;17581;43.222;27.924;2022-11-27T06:23:53;31.33;;;17.30;;
30874;SDS011;17581;43.222;27.924;2022-11-27T06:26:27;32.72;;;18.05;;
30874;SDS011;17581;43.222;27.924;2022-11-27T06:28:54;30.42;;;17.35;;
30874;SDS011;17581;43.222;27.924;2022-11-27T06:31:22;30.67;;;17.95;;
30874;SDS011;17581;43.222;27.924;2022-11-27T06:33:50;28.50;;;16.63;;
30874;SDS011;17581;43.222;27.924;2022-11-27T06:36:17;26.85;;;16.35;;
30874;SDS011;17581;43.222;27.924;2022-11-27T06:38:44;35.63;;;18.30;;
30874;SDS011;17581;43.222;27.924;2022-11-27T06:41:17;27.85;;;14.70;;
30874;SDS011;17581;43.222;27.924;2022-11-27T06:43:44;35.25;;;17.02;;
30874;SDS011;17581;43.222;27.924;2022-11-27T06:46:11;32.35;;;18.27;;
30874;SDS011;17581;43.222;27.924;2022-11-27T06:48:39;36.13;;;17.02;;
30874;SDS011;17581;43.222;27.924;2022-11-27T06:51:05;31.83;;;16.42;;
30874;SDS011;17581;43.222;27.924;2022-11-27T06:53:32;32.45;;;17.27;;
30874;SDS011;17581;43.222;27.924;2022-11-27T06:56:06;30.15;;;15.13;;
30874;SDS011;17581;43.222;27.924;2022-11-27T06:58:40;33.17;;;15.23;;
30874;SDS011;17581;43.222;27.924;2022-11-27T07:01:07;34.78;;;16.58;;
30874;SDS011;17581;43.222;27.924;2022-11-27T07:03:35;28.65;;;15.63;;
30874;SDS011;17581;43.222;27.924;2022-11-27T07:06:01;31.63;;;16.05;;
30874;SDS011;17581;43.222;27.924;2022-11-27T07:08:28;30.15;;;16.02;;
30874;SDS011;17581;43.222;27.924;2022-11-27T07:10:53;33.15;;;17.98;;
30874;SDS011;17581;43.222;27.924;2022-11-27T07:13:29;29.77;;;14.60;;
30874;SDS011;17581;43.222;27.924;2022-11-27T07:15:58;29.42;;;15.25;;
30874;SDS011;17581;43.222;27.924;2022-11-27T07:18:33;24.92;;;15.45;;
30874;SDS011;17581;43.222;27.924;2022-11-27T07:23:25;39.58;;;15.25;;
30874;SDS011;17581;43.222;27.924;2022-11-27T07:25:50;27.50;;;13.60;;
30874;SDS011;17581;43.222;27.924;2022-11-27T07:28:15;40.00;;;16.15;;
30874;SDS011;17581;43.222;27.924;2022-11-27T07:30:41;36.53;;;15.57;;
30874;SDS011;17581;43.222;27.924;2022-11-27T07:33:06;30.17;;;14.13;;
30874;SDS011;17581;43.222;27.924;2022-11-27T07:35:32;27.42;;;14.15;;
30874;SDS011;17581;43.222;27.924;2022-11-27T07:37:57;31.77;;;14.20;;
30874;SDS011;17581;43.222;27.924;2022-11-27T07:40:23;26.02;;;12.80;;
30874;SDS011;17581;43.222;27.924;2022-11-27T07:42:48;30.77;;;12.57;;
30874;SDS011;17581;43.222;27.924;2022-11-27T07:45:13;21.65;;;12.48;;
30874;SDS011;17581;43.222;27.924;2022-11-27T07:47:39;26.40;;;13.10;;
30874;SDS011;17581;43.222;27.924;2022-11-27T07:50:05;25.55;;;11.40;;
30874;SDS011;17581;43.222;27.924;2022-11-27T07:52:33;34.05;;;12.90;;
30874;SDS011;17581;43.222;27.924;2022-11-27T07:54:59;23.27;;;11.85;;
30874;SDS011;17581;43.222;27.924;2022-11-27T07:57:25;19.30;;;11.20;;
30874;SDS011;17581;43.222;27.924;2022-11-27T07:59:51;23.27;;;12.27;;
30874;SDS011;17581;43.222;27.924;2022-11-27T08:02:17;25.42;;;11.07;;
30874;SDS011;17581;43.222;27.924;2022-11-27T08:04:42;24.13;;;11.23;;
30874;SDS011;17581;43.222;27.924;2022-11-27T08:07:08;17.33;;;9.35;;
30874;SDS011;17581;43.222;27.924;2022-11-27T08:09:33;23.00;;;11.13;;
30874;SDS011;17581;43.222;27.924;2022-11-27T08:11:59;21.05;;;10.32;;
30874;SDS011;17581;43.222;27.924;2022-11-27T08:14:25;15.50;;;8.80;;
30874;SDS011;17581;43.222;27.924;2022-11-27T08:16:50;16.80;;;10.05;;
30874;SDS011;17581;43.222;27.924;2022-11-27T08:19:15;20.02;;;9.88;;
30874;SDS011;17581;43.222;27.924;2022-11-27T08:21:41;19.30;;;10.52;;
30874;SDS011;17581;43.222;27.924;2022-11-27T08:24:06;24.30;;;9.88;;
30874;SDS011;17581;43.222;27.924;2022-11-27T08:26:33;21.58;;;10.18;;
30874;SDS011;17581;43.222;27.924;2022-11-27T08:28:58;16.38;;;9.93;;
30874;SDS011;17581;43.222;27.924;2022-11-27T08:31:24;20.02;;;10.65;;
30874;SDS011;17581;43.222;27.924;2022-11-27T08:33:50;30.05;;;16.23;;
30874;SDS011;17581;43.222;27.924;2022-11-27T08:36:15;35.13;;;12.00;;
30874;SDS011;17581;43.222;27.924;2022-11-27T08:38:41;33.42;;;13.18;;
30874;SDS011;17581;43.222;27.924;2022-11-27T08:41:07;34.78;;;12.73;;
30874;SDS011;17581;43.222;27.924;2022-11-27T08:43:33;23.70;;;12.02;;
30874;SDS011;17581;43.222;27.924;2022-11-27T08:46:01;23.80;;;12.85;;
30874;SDS011;17581;43.222;27.924;2022-11-27T08:48:28;25.73;;;12.25;;
30874;SDS011;17581;43.222;27.924;2022-11-27T08:50:53;27.33;;;11.52;;
30874;SDS011;17581;43.222;27.924;2022-11-27T08:53:18;20.63;;;10.00;;
30874;SDS011;17581;43.222;27.924;2022-11-27T08:55:44;20.75;;;10.02;;
30874;SDS011;17581;43.222;27.924;2022-11-27T08:58:10;20.30;;;9.05;;
30874;SDS011;17581;43.222;27.924;2022-11-27T09:00:36;16.90;;;8.65;;
30874;SDS011;17581;43.222;27.924;2022-11-27T09:03:02;19.13;;;9.27;;
30874;SDS011;17581;43.222;27.924;2022-11-27T09:05:28;14.27;;;7.68;;
30874;SDS011;17581;43.222;27.924;2022-11-27T09:07:54;15.68;;;8.93;;
30874;SDS011;17581;43.222;27.924;2022-11-27T09:10:20;28.23;;;8.95;;
30874;SDS011;17581;43.222;27.924;2022-11-27T09:12:47;18.58;;;8.77;;
30874;SDS011;17581;43.222;27.924;2022-11-27T09:15:13;19.63;;;8.07;;
30874;SDS011;17581;43.222;27.924;2022-11-27T09:17:38;19.73;;;9.98;;
30874;SDS011;17581;43.222;27.924;2022-11-27T09:20:05;21.85;;;8.90;;
30874;SDS011;17581;43.222;27.924;2022-11-27T09:22:32;14.88;;;7.22;;
30874;SDS011;17581;43.222;27.924;2022-11-27T09:24:58;14.73;;;7.57;;
30874;SDS011;17581;43.222;27.924;2022-11-27T09:27:24;19.48;;;7.60;;
30874;SDS011;17581;43.222;27.924;2022-11-27T09:29:49;16.38;;;7.85;;
30874;SDS011;17581;43.222;27.924;2022-11-27T09:32:15;15.05;;;6.93;;
30874;SDS011;17581;43.222;27.924;2022-11-27T09:34:41;11.85;;;7.03;;
30874;SDS011;17581;43.222;27.924;2022-11-27T09:37:06;12.43;;;7.25;;
30874;SDS011;17581;43.222;27.924;2022-11-27T09:39:33;37.42;;;9.77;;
30874;SDS011;17581;43.222;27.924;2022-11-27T09:41:59;17.80;;;7.32;;
30874;SDS011;17581;43.222;27.924;2022-11-27T09:44:51;17.63;;;6.55;;
30874;SDS011;17581;43.222;27.924;2022-11-27T09:47:30;12.07;;;6.63;;
30874;SDS011;17581;43.222;27.924;2022-11-27T09:50:36;14.75;;;7.00;;
30874;SDS011;17581;43.222;27.924;2022-11-27T09:53:12;12.40;;;6.68;;
30874;SDS011;17581;43.222;27.924;2022-11-27T09:55:48;14.60;;;6.13;;
30874;SDS011;17581;43.222;27.924;2022-11-27T10:01:15;18.85;;;7.22;;
30874;SDS011;17581;43.222;27.924;2022-11-27T10:03:42;17.08;;;6.75;;
30874;SDS011;17581;43.222;27.924;2022-11-27T10:06:30;22.40;;;6.78;;
30874;SDS011;17581;43.222;27.924;2022-11-27T10:14:49;21.55;;;6.38;;
30874;SDS011;17581;43.222;27.924;2022-11-27T10:17:39;13.90;;;6.60;;
30874;SDS011;17581;43.222;27.924;2022-11-27T10:20:43;9.48;;;5.95;;
30874;SDS011;17581;43.222;27.924;2022-11-27T10:25:48;24.90;;;6.35;;
30874;SDS011;17581;43.222;27.924;2022-11-27T10:30:54;20.58;;;8.13;;
30874;SDS011;17581;43.222;27.924;2022-11-27T10:33:30;20.05;;;8.32;;
30874;SDS011;17581;43.222;27.924;2022-11-27T10:36:02;28.80;;;9.43;;
30874;SDS011;17581;43.222;27.924;2022-11-27T10:38:30;13.25;;;7.40;;
30874;SDS011;17581;43.222;27.924;2022-11-27T10:43:31;12.63;;;7.93;;
30874;SDS011;17581;43.222;27.924;2022-11-27T10:48:45;16.30;;;7.10;;
30874;SDS011;17581;43.222;27.924;2022-11-27T10:51:14;19.08;;;7.18;;
30874;SDS011;17581;43.222;27.924;2022-11-27T10:53:44;17.65;;;6.93;;
30874;SDS011;17581;43.222;27.924;2022-11-27T10:59:12;15.00;;;7.20;;
30874;SDS011;17581;43.222;27.924;2022-11-27T11:01:50;20.33;;;7.43;;
30874;SDS011;17581;43.222;27.924;2022-11-27T11:04:21;19.00;;;7.68;;
30874;SDS011;17581;43.222;27.924;2022-11-27T11:06:51;18.27;;;7.20;;
30874;SDS011;17581;43.222;27.924;2022-11-27T11:09:23;22.00;;;7.88;;
30874;SDS011;17581;43.222;27.924;2022-11-27T11:11:52;14.40;;;6.78;;
30874;SDS011;17581;43.222;27.924;2022-11-27T11:14:19;10.30;;;6.35;;
30874;SDS011;17581;43.222;27.924;2022-11-27T11:16:49;17.60;;;6.57;;
30874;SDS011;17581;43.222;27.924;2022-11-27T11:19:22;28.13;;;8.10;;
30874;SDS011;17581;43.222;27.924;2022-11-27T11:22:02;18.38;;;10.20;;
30874;SDS011;17581;43.222;27.924;2022-11-27T11:24:30;22.73;;;8.57;;
30874;SDS011;17581;43.222;27.924;2022-11-27T11:32:04;17.35;;;6.88;;
30874;SDS011;17581;43.222;27.924;2022-11-27T11:34:33;10.88;;;6.90;;
30874;SDS011;17581;43.222;27.924;2022-11-27T11:37:03;21.95;;;11.55;;
30874;SDS011;17581;43.222;27.924;2022-11-27T11:39:32;19.17;;;10.57;;
30874;SDS011;17581;43.222;27.924;2022-11-27T11:42:07;29.77;;;11.05;;
30874;SDS011;17581;43.222;27.924;2022-11-27T11:44:45;23.47;;;8.07;;
30874;SDS011;17581;43.222;27.924;2022-11-27T11:47:16;26.83;;;8.23;;
30874;SDS011;17581;43.222;27.924;2022-11-27T11:49:43;10.88;;;6.28;;
30874;SDS011;17581;43.222;27.924;2022-11-27T12:00:16;24.98;;;6.75;;
30874;SDS011;17581;43.222;27.924;2022-11-27T12:02:53;13.85;;;6.50;;
30874;SDS011;17581;43.222;27.924;2022-11-27T12:16:12;20.40;;;7.65;;
30874;SDS011;17581;43.222;27.924;2022-11-27T12:22:11;17.73;;;6.82;;
30874;SDS011;17581;43.222;27.924;2022-11-27T12:30:29;13.70;;;6.78;;
30874;SDS011;17581;43.222;27.924;2022-11-27T12:41:30;19.30;;;8.75;;
30874;SDS011;17581;43.222;27.924;2022-11-27T12:44:00;15.48;;;7.63;;
30874;SDS011;17581;43.222;27.924;2022-11-27T12:48:55;26.17;;;10.27;;
30874;SDS011;17581;43.222;27.924;2022-11-27T12:51:30;15.10;;;7.78;;
30874;SDS011;17581;43.222;27.924;2022-11-27T12:54:02;14.85;;;7.43;;
30874;SDS011;17581;43.222;27.924;2022-11-27T12:56:39;15.13;;;6.43;;
30874;SDS011;17581;43.222;27.924;2022-11-27T12:59:23;12.85;;;6.68;;
30874;SDS011;17581;43.222;27.924;2022-11-27T13:05:02;15.23;;;6.57;;
30874;SDS011;17581;43.222;27.924;2022-11-27T13:07:42;14.00;;;6.13;;
30874;SDS011;17581;43.222;27.924;2022-11-27T13:13:25;21.23;;;5.93;;
30874;SDS011;17581;43.222;27.924;2022-11-27T13:21:21;16.33;;;5.57;;
30874;SDS011;17581;43.222;27.924;2022-11-27T13:23:50;14.18;;;7.10;;
30874;SDS011;17581;43.222;27.924;2022-11-27T13:26:20;10.95;;;6.30;;
30874;SDS011;17581;43.222;27.924;2022-11-27T13:28:50;10.88;;;6.05;;
30874;SDS011;17581;43.222;27.924;2022-11-27T13:31:26;8.20;;;5.55;;
30874;SDS011;17581;43.222;27.924;2022-11-27T13:33:58;12.32;;;6.60;;
30874;SDS011;17581;43.222;27.924;2022-11-27T13:36:26;27.52;;;6.57;;
30874;SDS011;17581;43.222;27.924;2022-11-27T13:38:58;23.48;;;7.18;;
30874;SDS011;17581;43.222;27.924;2022-11-27T13:41:44;15.02;;;6.35;;
30874;SDS011;17581;43.222;27.924;2022-11-27T13:44:26;16.73;;;6.88;;
30874;SDS011;17581;43.222;27.924;2022-11-27T13:49:29;20.10;;;7.07;;
30874;SDS011;17581;43.222;27.924;2022-11-27T13:52:07;23.45;;;8.85;;
30874;SDS011;17581;43.222;27.924;2022-11-27T13:54:38;20.92;;;8.48;;
30874;SDS011;17581;43.222;27.924;2022-11-27T13:57:16;18.05;;;8.63;;
30874;SDS011;17581;43.222;27.924;2022-11-27T14:02:23;47.83;;;15.85;;
30874;SDS011;17581;43.222;27.924;2022-11-27T14:04:50;22.50;;;9.38;;
30874;SDS011;17581;43.222;27.924;2022-11-27T14:07:17;28.85;;;9.25;;
30874;SDS011;17581;43.222;27.924;2022-11-27T14:09:44;26.35;;;7.47;;
30874;SDS011;17581;43.222;27.924;2022-11-27T14:12:17;25.20;;;8.40;;
30874;SDS011;17581;43.222;27.924;2022-11-27T14:14:56;29.70;;;9.07;;
30874;SDS011;17581;43.222;27.924;2022-11-27T14:17:33;16.25;;;7.65;;
30874;SDS011;17581;43.222;27.924;2022-11-27T14:22:55;18.30;;;8.07;;
30874;SDS011;17581;43.222;27.924;2022-11-27T14:25:31;37.38;;;12.65;;
30874;SDS011;17581;43.222;27.924;2022-11-27T14:28:17;17.67;;;8.30;;
30874;SDS011;17581;43.222;27.924;2022-11-27T14:30:53;38.10;;;12.35;;
30874;SDS011;17581;43.222;27.924;2022-11-27T14:33:33;20.75;;;9.20;;
30874;SDS011;17581;43.222;27.924;2022-11-27T14:36:00;23.45;;;8.73;;
30874;SDS011;17581;43.222;27.924;2022-11-27T14:38:27;23.05;;;10.43;;
30874;SDS011;17581;43.222;27.924;2022-11-27T14:41:05;14.20;;;7.82;;
30874;SDS011;17581;43.222;27.924;2022-11-27T14:43:38;27.15;;;9.63;;
30874;SDS011;17581;43.222;27.924;2022-11-27T14:46:04;15.77;;;7.43;;
30874;SDS011;17581;43.222;27.924;2022-11-27T14:48:42;14.70;;;8.57;;
30874;SDS011;17581;43.222;27.924;2022-11-27T14:51:11;12.73;;;7.47;;
30874;SDS011;17581;43.222;27.924;2022-11-27T14:56:06;20.83;;;9.15;;
30874;SDS011;17581;43.222;27.924;2022-11-27T14:58:32;20.30;;;10.48;;
30874;SDS011;17581;43.222;27.924;2022-11-27T15:01:02;18.25;;;9.25;;
30874;SDS011;17581;43.222;27.924;2022-11-27T15:03:30;15.15;;;7.60;;
30874;SDS011;17581;43.222;27.924;2022-11-27T15:05:56;26.80;;;7.65;;
30874;SDS011;17581;43.222;27.924;2022-11-27T15:08:27;23.35;;;10.13;;
30874;SDS011;17581;43.222;27.924;2022-11-27T15:10:56;22.40;;;9.90;;
30874;SDS011;17581;43.222;27.924;2022-11-27T15:13:25;73.28;;;31.65;;
30874;SDS011;17581;43.222;27.924;2022-11-27T15:15:54;15.10;;;9.57;;
30874;SDS011;17581;43.222;27.924;2022-11-27T15:18:42;50.20;;;18.73;;
30874;SDS011;17581;43.222;27.924;2022-11-27T15:21:17;25.13;;;9.98;;
30874;SDS011;17581;43.222;27.924;2022-11-27T15:23:45;41.28;;;12.85;;
30874;SDS011;17581;43.222;27.924;2022-11-27T15:26:14;38.55;;;12.15;;
30874;SDS011;17581;43.222;27.924;2022-11-27T15:28:58;33.83;;;11.25;;
30874;SDS011;17581;43.222;27.924;2022-11-27T15:31:31;24.85;;;10.90;;
30874;SDS011;17581;43.222;27.924;2022-11-27T15:34:02;25.73;;;11.38;;
30874;SDS011;17581;43.222;27.924;2022-11-27T15:36:38;22.00;;;10.48;;
30874;SDS011;17581;43.222;27.924;2022-11-27T15:42:03;29.17;;;12.23;;
30874;SDS011;17581;43.222;27.924;2022-11-27T15:44:34;18.67;;;9.43;;
30874;SDS011;17581;43.222;27.924;2022-11-27T15:46:59;28.75;;;12.20;;
30874;SDS011;17581;43.222;27.924;2022-11-27T15:49:27;35.35;;;16.65;;
30874;SDS011;17581;43.222;27.924;2022-11-27T15:51:53;34.50;;;12.07;;
30874;SDS011;17581;43.222;27.924;2022-11-27T15:54:20;20.83;;;11.93;;
30874;SDS011;17581;43.222;27.924;2022-11-27T15:56:45;31.13;;;12.45;;
30874;SDS011;17581;43.222;27.924;2022-11-27T15:59:12;45.95;;;15.85;;
30874;SDS011;17581;43.222;27.924;2022-11-27T16:01:38;36.38;;;16.05;;
30874;SDS011;17581;43.222;27.924;2022-11-27T16:04:03;19.83;;;11.40;;
30874;SDS011;17581;43.222;27.924;2022-11-27T16:06:29;32.90;;;12.45;;
30874;SDS011;17581;43.222;27.924;2022-11-27T16:08:55;27.20;;;14.05;;
30874;SDS011;17581;43.222;27.924;2022-11-27T16:11:21;29.23;;;12.20;;
30874;SDS011;17581;43.222;27.924;2022-11-27T16:13:47;41.83;;;16.10;;
30874;SDS011;17581;43.222;27.924;2022-11-27T16:16:13;39.22;;;14.45;;
30874;SDS011;17581;43.222;27.924;2022-11-27T16:18:39;30.50;;;12.02;;
30874;SDS011;17581;43.222;27.924;2022-11-27T16:21:05;23.38;;;12.77;;
30874;SDS011;17581;43.222;27.924;2022-11-27T16:23:36;37.95;;;14.93;;
30874;SDS011;17581;43.222;27.924;2022-11-27T16:26:03;27.92;;;13.95;;
30874;SDS011;17581;43.222;27.924;2022-11-27T16:28:29;27.52;;;13.30;;
30874;SDS011;17581;43.222;27.924;2022-11-27T16:30:57;28.02;;;12.10;;
30874;SDS011;17581;43.222;27.924;2022-11-27T16:33:24;19.70;;;11.07;;
30874;SDS011;17581;43.222;27.924;2022-11-27T16:35:50;24.20;;;12.93;;